createdAt,value
2019-05-21T00:00:44.343Z,28.57
2019-05-21T00:03:10.967Z,29.13
2019-05-21T00:05:37.598Z,29.67
2019-05-21T00:08:04.318Z,28.43
2019-05-21T00:10:30.959Z,29.93
2019-05-21T00:12:57.675Z,29.13
2019-05-21T00:15:24.408Z,28.33
2019-05-21T00:17:51.107Z,28.50
2019-05-21T00:20:17.931Z,27.27
2019-05-21T00:23:02.970Z,29.43
2019-05-21T00:25:29.597Z,30.30
2019-05-21T00:28:15.043Z,31.53
2019-05-21T00:31:00.383Z,32.33
2019-05-21T00:33:45.820Z,34.30
2019-05-21T00:36:32.146Z,31.17
2019-05-21T00:39:17.969Z,27.50
2019-05-21T00:42:00.800Z,25.20
2019-05-21T00:44:28.706Z,23.90
2019-05-21T00:46:55.341Z,24.47
2019-05-21T00:49:22.122Z,24.33
2019-05-21T00:51:48.887Z,25.17
2019-05-21T00:54:15.678Z,26.20
2019-05-21T00:56:42.312Z,26.67
2019-05-21T00:59:08.918Z,30.77
2019-05-21T01:01:35.550Z,32.67
2019-05-21T01:04:02.283Z,36.73
2019-05-21T01:06:28.918Z,36.10
2019-05-21T01:08:55.534Z,39.23
2019-05-21T01:11:22.173Z,39.27
2019-05-21T01:13:48.905Z,37.77
2019-05-21T01:16:15.530Z,35.53
2019-05-21T01:19:00.595Z,37.13
2019-05-21T01:21:27.426Z,34.33
2019-05-21T01:23:54.074Z,34.20
2019-05-21T01:26:20.727Z,34.53
2019-05-21T01:28:47.349Z,34.03
2019-05-21T01:31:14.042Z,33.77
2019-05-21T01:33:40.763Z,34.57
2019-05-21T01:36:07.498Z,34.23
2019-05-21T01:38:34.136Z,35.63
2019-05-21T01:41:00.763Z,35.43
2019-05-21T01:43:27.395Z,36.23
2019-05-21T01:45:54.006Z,35.67
2019-05-21T01:48:20.642Z,36.57
2019-05-21T01:50:47.255Z,36.10
2019-05-21T01:53:13.886Z,35.63
2019-05-21T01:55:40.510Z,35.37
2019-05-21T01:58:07.745Z,37.47
2019-05-21T02:00:34.371Z,35.20
2019-05-21T02:03:00.978Z,35.00
2019-05-21T02:05:33.195Z,34.93
2019-05-21T02:07:56.140Z,34.67
2019-05-21T02:10:22.804Z,33.70
2019-05-21T02:13:07.922Z,33.80
2019-05-21T02:15:34.575Z,34.03
2019-05-21T02:18:01.283Z,33.63
2019-05-21T02:20:28.023Z,34.97
2019-05-21T02:22:54.660Z,35.33
2019-05-21T02:25:21.312Z,36.97
2019-05-21T02:27:47.924Z,41.20
2019-05-21T02:30:15.155Z,42.47
2019-05-21T02:32:41.775Z,42.80
2019-05-21T02:35:09.405Z,41.30
2019-05-21T02:37:36.027Z,42.80
2019-05-21T02:40:03.743Z,39.90
2019-05-21T02:42:30.370Z,41.63
2019-05-21T02:44:56.999Z,40.63
2019-05-21T02:47:23.730Z,39.80
2019-05-21T02:49:50.975Z,40.10
2019-05-21T02:52:17.604Z,38.30
2019-05-21T02:54:44.224Z,38.57
2019-05-21T02:57:10.864Z,37.43
2019-05-21T02:59:38.187Z,36.63
2019-05-21T03:02:06.707Z,36.77
2019-05-21T03:04:33.332Z,34.63
2019-05-21T03:07:18.245Z,34.97
2019-05-21T03:09:45.952Z,36.70
2019-05-21T03:12:12.672Z,37.40
2019-05-21T03:14:39.311Z,34.57
2019-05-21T03:17:06.218Z,35.00
2019-05-21T03:19:32.871Z,34.10
2019-05-21T03:21:59.495Z,34.37
2019-05-21T03:24:26.123Z,34.97
2019-05-21T03:26:52.771Z,34.33
2019-05-21T03:29:19.503Z,34.13
2019-05-21T03:31:46.112Z,31.87
2019-05-21T03:34:12.790Z,32.77
2019-05-21T03:36:39.492Z,31.57
2019-05-21T03:39:06.215Z,32.60
2019-05-21T03:41:32.856Z,31.93
2019-05-21T03:43:59.677Z,31.87
2019-05-21T03:46:26.316Z,31.80
2019-05-21T03:48:52.985Z,32.17
2019-05-21T03:51:19.607Z,31.07
2019-05-21T03:53:46.228Z,30.07
2019-05-21T03:56:12.867Z,29.37
2019-05-21T03:58:39.510Z,28.17
2019-05-21T04:01:06.162Z,27.20
2019-05-21T04:03:32.854Z,24.13
2019-05-21T04:05:59.475Z,23.60
2019-05-21T04:08:26.108Z,23.83
2019-05-21T04:10:52.976Z,23.20
2019-05-21T04:13:19.610Z,24.77
2019-05-21T04:15:53.963Z,23.87
2019-05-21T04:18:25.435Z,24.70
2019-05-21T04:20:52.074Z,24.43
2019-05-21T04:23:18.717Z,24.13
2019-05-21T04:25:45.432Z,23.93
2019-05-21T04:28:12.080Z,26.13
2019-05-21T04:30:38.716Z,25.40
2019-05-21T04:33:06.126Z,25.00
2019-05-21T04:35:32.753Z,26.20
2019-05-21T04:37:59.363Z,26.23
2019-05-21T04:40:25.999Z,24.70
2019-05-21T04:42:52.614Z,26.50
2019-05-21T04:45:19.248Z,28.87
2019-05-21T04:47:46.095Z,29.80
2019-05-21T04:50:12.832Z,29.50
2019-05-21T04:52:39.451Z,30.30
2019-05-21T04:55:06.374Z,31.60
2019-05-21T04:57:37.040Z,32.57
2019-05-21T05:00:01.742Z,36.53
2019-05-21T05:02:28.350Z,35.27
2019-05-21T05:04:55.022Z,34.00
2019-05-21T05:07:28.341Z,35.50
2019-05-21T05:09:50.170Z,36.13
2019-05-21T05:12:16.788Z,36.47
2019-05-21T05:14:43.419Z,36.50
2019-05-21T05:17:10.035Z,37.00
2019-05-21T05:19:36.718Z,37.80
2019-05-21T05:22:03.419Z,37.50
2019-05-21T05:24:30.054Z,36.40
2019-05-21T05:26:56.706Z,35.93
2019-05-21T05:29:23.326Z,36.90
2019-05-21T05:31:49.957Z,35.93
2019-05-21T05:34:16.637Z,35.13
2019-05-21T05:36:43.256Z,35.83
2019-05-21T05:39:09.903Z,35.43
2019-05-21T05:41:36.514Z,36.07
2019-05-21T05:44:03.237Z,35.83
2019-05-21T05:46:29.885Z,36.30
2019-05-21T05:49:01.790Z,36.37
2019-05-21T05:51:28.715Z,38.03
2019-05-21T05:53:58.224Z,40.90
2019-05-21T05:56:25.958Z,37.10
2019-05-21T05:58:52.670Z,35.33
2019-05-21T06:01:19.310Z,35.13
2019-05-21T06:03:45.922Z,34.27
2019-05-21T06:06:12.602Z,34.37
2019-05-21T06:08:39.563Z,35.53
2019-05-21T06:11:06.296Z,32.93
2019-05-21T06:13:33.050Z,34.97
2019-05-21T06:16:00.254Z,33.70
2019-05-21T06:18:26.890Z,32.97
2019-05-21T06:20:53.527Z,33.00
2019-05-21T06:23:20.161Z,37.13
2019-05-21T06:25:46.779Z,30.77
2019-05-21T06:28:19.284Z,27.97
2019-05-21T06:30:47.932Z,27.87
2019-05-21T06:33:14.513Z,25.97
2019-05-21T06:35:41.386Z,24.37
2019-05-21T06:38:17.192Z,24.23
2019-05-21T06:40:38.550Z,23.60
2019-05-21T06:43:07.191Z,23.30
2019-05-21T06:45:33.886Z,23.83
2019-05-21T06:48:00.495Z,24.17
2019-05-21T06:50:27.066Z,25.70
2019-05-21T06:52:53.657Z,25.10
2019-05-21T06:55:20.233Z,25.60
2019-05-21T06:57:46.845Z,32.17
2019-05-21T07:00:14.038Z,26.67
2019-05-21T07:02:40.699Z,25.70
2019-05-21T07:05:08.204Z,27.83
2019-05-21T07:07:34.920Z,29.00
2019-05-21T07:10:02.098Z,31.83
2019-05-21T07:12:28.807Z,30.37
2019-05-21T07:14:55.451Z,29.50
2019-05-21T07:17:22.078Z,28.67
2019-05-21T07:19:48.703Z,27.43
2019-05-21T07:22:15.326Z,29.80
2019-05-21T07:24:41.938Z,29.47
2019-05-21T07:27:08.567Z,28.73
2019-05-21T07:29:35.287Z,27.73
2019-05-21T07:32:02.013Z,28.73
2019-05-21T07:34:28.756Z,27.30
2019-05-21T07:36:55.383Z,26.87
2019-05-21T07:39:21.986Z,27.27
2019-05-21T07:41:48.669Z,27.20
2019-05-21T07:44:15.383Z,27.27
2019-05-21T07:46:42.027Z,27.10
2019-05-21T07:49:08.747Z,28.97
2019-05-21T07:51:35.394Z,29.70
2019-05-21T07:54:02.016Z,27.43
2019-05-21T07:56:28.930Z,26.83
2019-05-21T07:58:55.564Z,26.20
2019-05-21T08:01:22.291Z,24.73
2019-05-21T08:03:48.938Z,24.47
2019-05-21T08:06:15.570Z,24.63
2019-05-21T08:08:42.212Z,26.20
2019-05-21T08:11:08.922Z,26.40
2019-05-21T08:13:35.563Z,26.10
2019-05-21T08:16:02.382Z,25.27
2019-05-21T08:18:29.018Z,26.50
2019-05-21T08:20:55.646Z,28.47
2019-05-21T08:23:22.271Z,29.00
2019-05-21T08:25:49.143Z,26.40
2019-05-21T08:28:15.777Z,27.10
2019-05-21T08:30:42.389Z,26.90
2019-05-21T08:33:09.127Z,26.97
2019-05-21T08:35:35.747Z,28.70
2019-05-21T08:38:06.335Z,27.70
2019-05-21T08:40:31.082Z,29.30
2019-05-21T08:42:57.715Z,29.43
2019-05-21T08:45:25.344Z,30.23
2019-05-21T08:47:51.982Z,27.07
2019-05-21T08:50:18.635Z,29.33
2019-05-21T08:52:45.477Z,28.23
2019-05-21T08:55:12.764Z,28.70
2019-05-21T08:57:39.504Z,32.30
2019-05-21T09:00:07.345Z,29.07
2019-05-21T09:02:34.064Z,29.10
2019-05-21T09:05:00.708Z,29.13
2019-05-21T09:07:27.324Z,27.80
2019-05-21T09:09:53.947Z,29.10
2019-05-21T09:12:20.678Z,28.63
2019-05-21T09:14:47.311Z,26.27
2019-05-21T09:17:13.939Z,24.87
2019-05-21T09:19:59.411Z,25.10
2019-05-21T09:22:26.035Z,24.43
2019-05-21T09:24:52.776Z,23.80
2019-05-21T09:27:19.703Z,26.70
2019-05-21T09:29:46.336Z,25.67
2019-05-21T09:32:13.147Z,26.03
2019-05-21T09:34:48.689Z,27.27
2019-05-21T09:37:19.255Z,27.50
2019-05-21T09:39:36.956Z,28.03
2019-05-21T09:42:03.681Z,28.40
2019-05-21T09:44:30.379Z,29.97
2019-05-21T09:46:57.015Z,31.07
2019-05-21T09:49:23.635Z,29.73
2019-05-21T09:51:50.319Z,29.80
2019-05-21T09:54:16.995Z,30.87
2019-05-21T09:56:43.611Z,32.33
2019-05-21T09:59:21.727Z,31.10
2019-05-21T10:01:50.292Z,32.47
2019-05-21T10:04:16.924Z,31.57
2019-05-21T10:06:43.739Z,31.07
2019-05-21T10:09:12.263Z,33.07
2019-05-21T10:11:38.892Z,30.90
2019-05-21T10:14:05.502Z,29.00
2019-05-21T10:16:32.439Z,27.80
2019-05-21T10:18:59.255Z,25.30
2019-05-21T10:21:25.995Z,24.77
2019-05-21T10:23:53.358Z,23.57
2019-05-21T10:26:20.003Z,23.77
2019-05-21T10:28:46.619Z,23.77
2019-05-21T10:31:13.256Z,29.37
2019-05-21T10:33:39.865Z,102.37
2019-05-21T10:36:07.043Z,23.17
2019-05-21T10:38:33.663Z,22.90
2019-05-21T10:41:00.300Z,23.53
2019-05-21T10:43:26.921Z,22.70
2019-05-21T10:45:53.554Z,22.47
2019-05-21T10:48:20.172Z,22.47
2019-05-21T10:50:46.802Z,23.57
2019-05-21T10:53:13.858Z,21.20
2019-05-21T10:55:40.595Z,21.50
2019-05-21T10:58:07.210Z,22.33
2019-05-21T11:00:34.855Z,22.53
2019-05-21T11:03:12.298Z,22.00
2019-05-21T11:05:40.906Z,22.50
2019-05-21T11:08:24.782Z,22.17
2019-05-21T11:10:36.147Z,23.30
2019-05-21T11:13:03.810Z,21.97
2019-05-21T11:15:30.822Z,22.40
2019-05-21T11:18:09.749Z,24.27
2019-05-21T11:20:26.105Z,24.43
2019-05-21T11:22:52.891Z,24.30
2019-05-21T11:25:19.583Z,26.77
2019-05-21T11:27:46.315Z,25.77
2019-05-21T11:30:13.031Z,26.13
2019-05-21T11:32:39.666Z,26.33
2019-05-21T11:35:06.483Z,26.07
2019-05-21T11:37:33.776Z,25.40
2019-05-21T11:40:00.389Z,24.63
2019-05-21T11:42:27.211Z,23.60
2019-05-21T11:44:53.822Z,24.03
2019-05-21T11:47:20.459Z,25.23
2019-05-21T11:49:47.082Z,25.33
2019-05-21T11:52:13.707Z,25.97
2019-05-21T11:54:40.850Z,24.87
2019-05-21T11:57:07.474Z,26.07
2019-05-21T11:59:34.116Z,25.50
2019-05-21T12:02:00.791Z,25.10
2019-05-21T12:04:27.513Z,24.83
2019-05-21T12:06:54.399Z,25.93
2019-05-21T12:09:21.035Z,25.80
2019-05-21T12:11:47.672Z,25.43
2019-05-21T12:14:14.301Z,26.50
2019-05-21T12:16:40.910Z,24.20
2019-05-21T12:19:08.407Z,23.80
2019-05-21T12:21:35.506Z,23.23
2019-05-21T12:24:02.143Z,22.67
2019-05-21T12:26:28.940Z,21.70
2019-05-21T12:28:55.722Z,22.30
2019-05-21T12:31:22.419Z,24.13
2019-05-21T12:33:49.069Z,23.40
2019-05-21T12:36:15.770Z,23.03
2019-05-21T12:38:42.391Z,23.40
2019-05-21T12:41:13.504Z,23.70
2019-05-21T12:43:38.808Z,22.97
2019-05-21T12:46:05.812Z,23.30
2019-05-21T12:48:32.475Z,23.70
2019-05-21T12:50:59.181Z,23.73
2019-05-21T12:53:25.799Z,24.77
2019-05-21T12:55:52.442Z,24.83
2019-05-21T12:58:20.008Z,23.57
2019-05-21T13:00:52.263Z,23.37
2019-05-21T13:03:21.557Z,23.60
2019-05-21T13:05:48.195Z,25.33
2019-05-21T13:08:14.947Z,24.87
2019-05-21T13:10:42.083Z,26.33
2019-05-21T13:13:08.692Z,24.50
2019-05-21T13:15:35.325Z,24.17
2019-05-21T13:18:02.231Z,24.97
2019-05-21T13:20:28.855Z,26.30
2019-05-21T13:22:55.503Z,26.80
2019-05-21T13:25:22.116Z,26.83
2019-05-21T13:27:48.747Z,29.53
2019-05-21T13:30:17.272Z,29.93
2019-05-21T13:32:44.062Z,29.20
2019-05-21T13:35:11.936Z,29.40
2019-05-21T13:37:38.867Z,29.17
2019-05-21T13:40:06.705Z,27.50
2019-05-21T13:42:33.432Z,28.13
2019-05-21T13:45:00.049Z,28.33
2019-05-21T13:47:26.687Z,27.87
2019-05-21T13:49:53.298Z,27.50
2019-05-21T13:52:19.923Z,27.10
2019-05-21T13:54:46.659Z,26.60
2019-05-21T13:57:13.280Z,26.27
2019-05-21T13:59:39.929Z,27.80
2019-05-21T14:02:08.582Z,28.40
2019-05-21T14:04:35.345Z,29.77
2019-05-21T14:07:06.957Z,31.23
2019-05-21T14:09:34.482Z,31.03
2019-05-21T14:12:01.396Z,30.70
2019-05-21T14:14:28.516Z,34.47
2019-05-21T14:16:55.361Z,31.73
2019-05-21T14:19:22.099Z,31.00
2019-05-21T14:21:48.709Z,30.43
2019-05-21T14:24:15.451Z,31.10
2019-05-21T14:26:42.859Z,31.00
2019-05-21T14:29:09.768Z,28.63
2019-05-21T14:31:36.600Z,29.77
2019-05-21T14:34:03.760Z,29.00
2019-05-21T14:36:30.611Z,28.90
2019-05-21T14:38:57.241Z,28.47
2019-05-21T14:41:23.871Z,25.63
2019-05-21T14:43:50.478Z,26.33
2019-05-21T14:46:17.237Z,24.97
2019-05-21T14:48:43.851Z,25.10
2019-05-21T14:51:13.433Z,24.57
2019-05-21T14:53:40.372Z,24.23
2019-05-21T14:56:07.400Z,24.60
2019-05-21T14:58:34.110Z,25.53
2019-05-21T15:01:00.766Z,25.10
2019-05-21T15:03:29.445Z,24.67
2019-05-21T15:05:56.007Z,25.03
2019-05-21T15:08:22.803Z,24.97
2019-05-21T15:10:49.857Z,26.43
2019-05-21T15:13:17.755Z,26.63
2019-05-21T15:15:44.405Z,26.67
2019-05-21T15:18:16.402Z,26.30
2019-05-21T15:20:44.467Z,27.07
2019-05-21T15:23:11.258Z,28.00
2019-05-21T15:25:37.873Z,28.17
2019-05-21T15:28:04.508Z,27.57
2019-05-21T15:30:31.236Z,28.00
2019-05-21T15:32:57.874Z,27.17
2019-05-21T15:35:24.557Z,28.50
2019-05-21T15:37:51.179Z,26.60
2019-05-21T15:40:18.033Z,28.23
2019-05-21T15:42:44.675Z,27.67
2019-05-21T15:45:11.462Z,27.97
2019-05-21T15:47:38.310Z,26.73
2019-05-21T15:50:05.203Z,26.80
2019-05-21T15:52:31.855Z,27.70
2019-05-21T15:54:58.484Z,26.93
2019-05-21T15:57:25.131Z,26.87
2019-05-21T15:59:51.752Z,26.97
2019-05-21T16:02:18.405Z,27.80
2019-05-21T16:04:45.147Z,29.50
2019-05-21T16:07:11.898Z,30.67
2019-05-21T16:09:38.611Z,28.13
2019-05-21T16:12:05.250Z,27.30
2019-05-21T16:14:31.903Z,27.33
2019-05-21T16:16:58.543Z,28.33
2019-05-21T16:19:25.301Z,27.80
2019-05-21T16:21:51.906Z,29.03
2019-05-21T16:24:19.447Z,28.63
2019-05-21T16:26:46.154Z,30.33
2019-05-21T16:29:12.796Z,29.10
2019-05-21T16:31:39.411Z,29.10
2019-05-21T16:34:07.255Z,30.37
2019-05-21T16:36:34.983Z,33.10
2019-05-21T16:39:03.882Z,32.80
2019-05-21T16:41:43.671Z,31.80
2019-05-21T16:43:59.105Z,32.23
2019-05-21T16:46:25.847Z,33.30
2019-05-21T16:48:52.503Z,33.43
2019-05-21T16:51:19.132Z,34.00
2019-05-21T16:53:45.742Z,33.87
2019-05-21T16:56:12.375Z,34.60
2019-05-21T16:58:39.093Z,36.30
2019-05-21T17:01:07.631Z,36.47
2019-05-21T17:03:36.531Z,36.00
2019-05-21T17:06:03.082Z,36.30
2019-05-21T17:08:29.729Z,36.03
2019-05-21T17:10:56.464Z,36.60
2019-05-21T17:13:23.514Z,36.40
2019-05-21T17:15:50.152Z,37.37
2019-05-21T17:18:17.075Z,36.50
2019-05-21T17:20:43.694Z,36.03
2019-05-21T17:23:10.460Z,35.77
2019-05-21T17:25:37.070Z,37.00
2019-05-21T17:28:03.811Z,111.67
2019-05-21T17:30:30.430Z,38.07
2019-05-21T17:32:57.167Z,37.50
2019-05-21T17:35:23.774Z,37.00
2019-05-21T17:37:50.447Z,37.63
2019-05-21T17:40:17.202Z,34.77
2019-05-21T17:42:43.847Z,33.53
2019-05-21T17:45:10.654Z,32.73
2019-05-21T17:47:37.299Z,30.90
2019-05-21T17:50:04.664Z,30.10
2019-05-21T17:52:31.634Z,29.73
2019-05-21T17:54:58.253Z,29.10
2019-05-21T17:57:25.298Z,29.87
2019-05-21T17:59:51.907Z,28.70
2019-05-21T18:02:19.043Z,29.00
2019-05-21T18:05:05.086Z,28.93
2019-05-21T18:07:32.120Z,28.80
2019-05-21T18:09:58.837Z,28.90
2019-05-21T18:12:31.985Z,26.73
2019-05-21T18:14:55.798Z,26.33
2019-05-21T18:17:24.349Z,26.93
2019-05-21T18:19:52.767Z,27.10
2019-05-21T18:22:21.793Z,26.20
2019-05-21T18:24:49.281Z,27.43
2019-05-21T18:27:16.509Z,25.67
2019-05-21T18:29:43.242Z,25.40
2019-05-21T18:32:10.163Z,97.20
2019-05-21T18:34:39.991Z,31.07
2019-05-21T18:37:06.768Z,31.30
2019-05-21T18:39:33.860Z,23.40
2019-05-21T18:42:00.703Z,21.27
2019-05-21T18:44:27.591Z,20.50
2019-05-21T18:46:54.307Z,19.90
2019-05-21T18:49:20.959Z,19.73
2019-05-21T18:51:47.575Z,17.80
2019-05-21T18:54:14.323Z,17.23
2019-05-21T18:56:41.496Z,18.53
2019-05-21T18:59:08.422Z,17.50
2019-05-21T19:01:38.324Z,17.37
2019-05-21T19:04:03.784Z,32.10
2019-05-21T19:06:30.411Z,51.57
2019-05-21T19:08:57.278Z,21.63
2019-05-21T19:11:24.012Z,16.63
2019-05-21T19:13:50.730Z,17.23
2019-05-21T19:16:17.376Z,17.30
2019-05-21T19:18:43.998Z,17.20
2019-05-21T19:21:10.643Z,17.43
2019-05-21T19:23:37.362Z,17.30
2019-05-21T19:26:05.116Z,16.67
2019-05-21T19:28:31.730Z,16.60
2019-05-21T19:30:58.366Z,16.07
2019-05-21T19:33:25.011Z,16.23
2019-05-21T19:35:51.848Z,15.77
2019-05-21T19:38:18.555Z,16.33
2019-05-21T19:40:45.276Z,16.67
2019-05-21T19:43:12.111Z,17.07
2019-05-21T19:45:38.927Z,15.67
2019-05-21T19:48:05.659Z,16.00
2019-05-21T19:50:32.998Z,16.27
2019-05-21T19:52:59.709Z,16.40
2019-05-21T19:55:27.067Z,15.53
2019-05-21T19:57:53.803Z,15.93
2019-05-21T20:00:21.314Z,15.67
2019-05-21T20:02:48.745Z,14.77
2019-05-21T20:05:15.777Z,13.37
2019-05-21T20:07:43.282Z,14.30
2019-05-21T20:10:10.993Z,13.43
2019-05-21T20:12:37.807Z,13.00
2019-05-21T20:15:08.042Z,13.27
2019-05-21T20:17:35.058Z,11.90
2019-05-21T20:20:03.414Z,11.70
2019-05-21T20:22:31.142Z,11.20
2019-05-21T20:24:57.974Z,11.67
2019-05-21T20:27:25.311Z,11.37
2019-05-21T20:29:52.542Z,11.33
2019-05-21T20:32:20.867Z,11.50
2019-05-21T20:34:50.893Z,10.23
2019-05-21T20:37:18.838Z,11.60
2019-05-21T20:39:47.179Z,10.97
2019-05-21T20:42:17.839Z,11.20
2019-05-21T20:44:45.430Z,11.27
2019-05-21T20:47:12.749Z,10.80
2019-05-21T20:49:39.903Z,10.53
2019-05-21T20:52:18.032Z,10.93
2019-05-21T20:54:56.554Z,10.93
2019-05-21T20:57:23.699Z,10.90
2019-05-21T20:59:50.472Z,11.00
2019-05-21T21:02:17.295Z,12.10
2019-05-21T21:04:44.507Z,11.60
2019-05-21T21:07:12.147Z,12.23
2019-05-21T21:09:39.158Z,11.27
2019-05-21T21:12:07.999Z,11.80
2019-05-21T21:14:35.925Z,12.00
2019-05-21T21:17:04.562Z,11.73
2019-05-21T21:19:31.703Z,12.60
2019-05-21T21:21:58.358Z,12.53
2019-05-21T21:24:25.090Z,13.83
2019-05-21T21:26:51.714Z,13.97
2019-05-21T21:29:18.703Z,14.47
2019-05-21T21:31:45.533Z,13.93
2019-05-21T21:34:13.049Z,15.10
2019-05-21T21:36:40.191Z,15.37
2019-05-21T21:39:07.258Z,16.57
2019-05-21T21:41:34.286Z,16.90
2019-05-21T21:44:01.466Z,18.13
2019-05-21T21:46:28.318Z,18.27
2019-05-21T21:48:56.067Z,18.77
2019-05-21T21:51:22.694Z,20.07
2019-05-21T21:53:49.532Z,19.63
2019-05-21T21:56:16.651Z,19.97
2019-05-21T21:58:43.272Z,21.07
2019-05-21T22:01:13.738Z,19.63
2019-05-21T22:03:42.671Z,22.00
2019-05-21T22:06:09.694Z,22.13
2019-05-21T22:08:36.438Z,22.53
2019-05-21T22:11:03.369Z,22.43
2019-05-21T22:13:30.007Z,23.70
2019-05-21T22:15:57.490Z,24.23
2019-05-21T22:18:24.751Z,23.77
2019-05-21T22:20:51.664Z,24.37
2019-05-21T22:23:18.298Z,25.10
2019-05-21T22:25:45.536Z,25.40
2019-05-21T22:28:12.487Z,25.73
2019-05-21T22:30:39.198Z,25.93
2019-05-21T22:33:06.430Z,26.97
2019-05-21T22:35:33.239Z,27.87
2019-05-21T22:37:59.893Z,28.33
2019-05-21T22:40:26.723Z,29.00
2019-05-21T22:42:53.351Z,28.77
2019-05-21T22:45:19.970Z,30.13
2019-05-21T22:47:46.611Z,30.00
2019-05-21T22:50:14.024Z,30.27
2019-05-21T22:52:40.667Z,31.73
2019-05-21T22:55:07.687Z,32.40
2019-05-21T22:57:34.567Z,33.23
2019-05-21T23:00:01.356Z,33.93
2019-05-21T23:02:30.248Z,33.67
2019-05-21T23:04:57.051Z,34.67
2019-05-21T23:07:23.690Z,35.33
2019-05-21T23:09:50.501Z,35.80
2019-05-21T23:12:18.563Z,34.40
2019-05-21T23:14:45.185Z,34.73
2019-05-21T23:17:12.071Z,34.20
2019-05-21T23:19:38.992Z,34.13
2019-05-21T23:22:06.206Z,35.23
2019-05-21T23:24:33.659Z,31.40
2019-05-21T23:27:01.490Z,33.20
2019-05-21T23:29:28.119Z,31.07
2019-05-21T23:31:54.737Z,30.47
2019-05-21T23:34:22.074Z,31.60
2019-05-21T23:36:48.683Z,28.20
2019-05-21T23:39:17.226Z,28.27
2019-05-21T23:41:44.962Z,27.30
2019-05-21T23:44:12.199Z,25.97
2019-05-21T23:46:38.830Z,25.40
2019-05-21T23:49:05.766Z,25.80
2019-05-21T23:51:33.172Z,25.43
2019-05-21T23:54:00.598Z,25.33
2019-05-21T23:56:27.219Z,24.57
2019-05-21T23:58:54.569Z,24.50
